createdAt,value
2023-04-17T04:02:21.835Z,40.53
2023-04-17T04:04:53.942Z,39.60
2023-04-17T04:07:25.769Z,39.13
2023-04-17T04:09:57.431Z,39.70
2023-04-17T04:12:29.167Z,37.47
2023-04-17T04:15:00.803Z,38.87
2023-04-17T04:17:33.801Z,38.73
2023-04-17T04:20:06.492Z,38.50
2023-04-17T04:22:38.155Z,38.17
2023-04-17T04:25:10.116Z,36.87
2023-04-17T04:27:41.777Z,35.43
2023-04-17T04:30:14.103Z,38.10
2023-04-17T04:32:47.150Z,38.67
2023-04-17T04:35:18.889Z,40.80
2023-04-17T04:37:50.564Z,39.07
2023-04-17T04:40:22.269Z,37.80
2023-04-17T04:42:53.943Z,40.57
2023-04-17T04:45:25.739Z,38.13
2023-04-17T04:47:58.825Z,40.00
2023-04-17T04:50:30.511Z,38.87
2023-04-17T04:53:02.162Z,37.83
2023-04-17T04:55:33.879Z,39.53
2023-04-17T04:58:05.554Z,39.47
2023-04-17T05:00:37.275Z,39.83
2023-04-17T05:03:10.446Z,39.03
2023-04-17T05:05:42.283Z,38.53
2023-04-17T05:08:13.945Z,37.90
2023-04-17T05:10:45.681Z,39.53
2023-04-17T05:13:17.356Z,37.17
2023-04-17T05:15:49.177Z,35.37
2023-04-17T05:18:22.193Z,36.17
2023-04-17T05:20:53.867Z,37.10
2023-04-17T05:23:25.555Z,37.00
2023-04-17T05:25:57.249Z,37.67
2023-04-17T05:28:28.929Z,36.27
2023-04-17T05:31:00.616Z,34.90
2023-04-17T05:33:33.632Z,35.53
2023-04-17T05:36:05.825Z,35.40
2023-04-17T05:38:37.482Z,34.83
2023-04-17T05:41:09.179Z,35.70
2023-04-17T05:43:40.851Z,34.30
2023-04-17T05:46:12.647Z,34.20
2023-04-17T05:48:45.692Z,34.53
2023-04-17T05:51:17.446Z,31.90
2023-04-17T05:53:49.156Z,32.97
2023-04-17T05:56:21.276Z,32.37
2023-04-17T05:58:52.935Z,34.30
2023-04-17T06:01:24.611Z,30.30
2023-04-17T06:03:57.892Z,32.20
2023-04-17T06:06:29.855Z,32.03
2023-04-17T06:09:01.510Z,30.43
2023-04-17T06:11:33.181Z,30.47
2023-04-17T06:14:04.857Z,31.93
2023-04-17T06:16:36.665Z,32.40
2023-04-17T06:19:09.864Z,30.90
2023-04-17T06:21:41.573Z,31.03
2023-04-17T06:24:13.230Z,30.03
2023-04-17T06:26:44.926Z,30.57
2023-04-17T06:29:16.592Z,30.13
2023-04-17T06:31:48.267Z,30.97
2023-04-17T06:34:21.296Z,30.90
2023-04-17T06:36:52.991Z,31.38
2023-04-17T06:39:24.689Z,29.87
2023-04-17T06:41:56.358Z,30.47
2023-04-17T06:44:28.023Z,30.63
2023-04-17T06:47:01.750Z,29.53
2023-04-17T06:49:35.902Z,29.50
2023-04-17T06:52:07.592Z,30.17
2023-04-17T06:54:39.250Z,31.40
2023-04-17T06:57:10.945Z,28.23
2023-04-17T06:59:42.612Z,31.33
2023-04-17T07:02:14.513Z,31.42
2023-04-17T07:04:47.701Z,32.08
2023-04-17T07:07:19.417Z,31.00
2023-04-17T07:09:51.106Z,31.53
2023-04-17T07:12:22.872Z,30.57
2023-04-17T07:14:54.576Z,33.03
2023-04-17T07:17:26.340Z,32.77
2023-04-17T07:19:59.349Z,30.73
2023-04-17T07:22:31.040Z,33.03
2023-04-17T07:25:02.754Z,32.10
2023-04-17T07:27:34.432Z,32.57
2023-04-17T07:30:07.617Z,32.13
2023-04-17T07:32:39.308Z,31.63
2023-04-17T07:35:12.316Z,31.60
2023-04-17T07:37:43.979Z,33.50
2023-04-17T07:40:15.845Z,32.87
2023-04-17T07:42:47.507Z,33.53
2023-04-17T07:45:19.366Z,34.10
2023-04-17T07:47:51.135Z,34.20
2023-04-17T07:50:24.274Z,34.87
2023-04-17T07:52:56.066Z,32.83
2023-04-17T07:55:27.992Z,33.80
2023-04-17T07:57:59.644Z,34.35
2023-04-17T08:00:31.340Z,33.30
2023-04-17T08:03:03.300Z,32.90
2023-04-17T08:05:36.438Z,34.07
2023-04-17T08:08:08.095Z,33.07
2023-04-17T08:10:42.383Z,32.03
2023-04-17T08:13:14.064Z,34.50
2023-04-17T08:15:45.787Z,33.23
2023-04-17T08:18:17.467Z,32.20
2023-04-17T08:20:50.501Z,28.90
2023-04-17T08:23:22.169Z,26.20
2023-04-17T08:25:53.854Z,27.13
2023-04-17T08:28:25.538Z,25.98
2023-04-17T08:30:57.278Z,25.17
2023-04-17T08:33:28.976Z,24.00
2023-04-17T08:36:03.951Z,24.40
2023-04-17T08:38:36.478Z,22.83
2023-04-17T08:41:08.274Z,22.13
2023-04-17T08:43:39.955Z,20.75
2023-04-17T08:46:11.689Z,21.37
2023-04-17T08:48:43.393Z,21.35
2023-04-17T08:51:16.608Z,20.35
2023-04-17T08:53:48.270Z,20.60
2023-04-17T08:56:19.949Z,20.13
2023-04-17T08:58:51.605Z,19.73
2023-04-17T09:01:23.298Z,18.88
2023-04-17T09:03:55.265Z,16.40
2023-04-17T09:06:28.478Z,17.47
2023-04-17T09:09:00.767Z,16.83
2023-04-17T09:11:32.461Z,16.48
2023-04-17T09:14:04.184Z,14.98
2023-04-17T09:16:35.977Z,16.13
2023-04-17T09:19:07.790Z,15.95
2023-04-17T09:21:40.831Z,16.10
2023-04-17T09:24:12.494Z,16.45
2023-04-17T09:26:44.150Z,17.00
2023-04-17T09:29:16.064Z,17.33
2023-04-17T09:31:48.041Z,16.38
2023-04-17T09:34:19.718Z,16.88
2023-04-17T09:36:53.593Z,15.18
2023-04-17T09:39:25.256Z,14.63
2023-04-17T09:42:03.013Z,14.48
2023-04-17T09:44:35.244Z,16.08
2023-04-17T09:47:06.951Z,15.63
2023-04-17T09:49:39.238Z,19.38
2023-04-17T09:52:12.248Z,17.92
2023-04-17T09:54:43.968Z,16.60
2023-04-17T09:57:15.624Z,15.05
2023-04-17T09:59:47.339Z,15.00
2023-04-17T10:02:20.073Z,15.88
2023-04-17T10:04:51.980Z,14.43
2023-04-17T10:07:24.970Z,14.73
2023-04-17T10:09:56.625Z,14.77
2023-04-17T10:12:28.280Z,14.63
2023-04-17T10:14:59.958Z,13.43
2023-04-17T10:17:32.111Z,13.25
2023-04-17T10:20:32.255Z,11.23
2023-04-17T10:23:27.813Z,12.82
2023-04-17T10:26:42.168Z,11.00
2023-04-17T10:29:13.838Z,11.15
2023-04-17T10:32:24.333Z,11.23
2023-04-17T10:34:56.407Z,11.27
2023-04-17T10:38:10.718Z,11.48
2023-04-17T10:40:43.925Z,9.20
2023-04-17T10:43:16.027Z,9.27
2023-04-17T10:45:57.744Z,9.88
2023-04-17T10:48:30.578Z,9.38
2023-04-17T10:51:02.820Z,9.95
2023-04-17T10:53:38.259Z,9.85
2023-04-17T10:56:11.963Z,9.40
2023-04-17T10:58:55.659Z,8.52
2023-04-17T11:01:29.247Z,9.38
2023-04-17T11:04:00.947Z,9.30
2023-04-17T11:06:33.267Z,9.27
2023-04-17T11:09:06.447Z,9.07
2023-04-17T11:11:44.084Z,8.90
2023-04-17T11:14:17.563Z,8.73
2023-04-17T11:16:50.450Z,8.52
2023-04-17T11:19:22.686Z,8.10
2023-04-17T11:21:55.574Z,8.82
2023-04-17T11:24:28.330Z,8.70
2023-04-17T11:27:01.535Z,7.88
2023-04-17T11:29:33.236Z,7.93
2023-04-17T11:32:05.319Z,7.85
2023-04-17T11:34:37.212Z,7.63
2023-04-17T11:37:09.168Z,8.05
2023-04-17T11:39:42.321Z,7.78
2023-04-17T11:42:25.626Z,8.02
2023-04-17T11:45:04.565Z,8.07
2023-04-17T11:47:36.713Z,8.38
2023-04-17T11:50:09.111Z,7.97
2023-04-17T11:52:40.923Z,7.40
2023-04-17T11:55:12.612Z,7.25
2023-04-17T11:57:45.648Z,7.72
2023-04-17T12:00:18.606Z,7.38
2023-04-17T12:02:50.651Z,6.97
2023-04-17T12:05:23.425Z,7.00
2023-04-17T12:08:01.926Z,6.47
2023-04-17T12:10:38.117Z,7.28
2023-04-17T12:13:11.403Z,6.88
2023-04-17T12:15:43.227Z,7.50
2023-04-17T12:18:14.868Z,7.05
2023-04-17T12:20:46.536Z,6.00
2023-04-17T12:23:18.168Z,6.55
2023-04-17T12:25:49.852Z,6.30
2023-04-17T12:28:22.839Z,6.18
2023-04-17T12:30:54.578Z,6.05
2023-04-17T12:33:26.296Z,5.82
2023-04-17T12:35:58.024Z,6.47
2023-04-17T12:38:29.723Z,5.85
2023-04-17T12:41:01.415Z,5.15
2023-04-17T12:43:34.390Z,5.00
2023-04-17T12:46:06.129Z,5.32
2023-04-17T12:48:37.832Z,4.90
2023-04-17T12:51:09.480Z,4.70
2023-04-17T12:53:41.115Z,5.53
2023-04-17T12:56:12.776Z,5.10
2023-04-17T12:58:45.754Z,4.95
2023-04-17T13:01:17.477Z,4.90
2023-04-17T13:03:49.279Z,4.45
2023-04-17T13:06:21.076Z,4.97
2023-04-17T13:08:52.725Z,4.53
2023-04-17T13:11:24.478Z,4.55
2023-04-17T13:13:57.480Z,5.00
2023-04-17T13:16:29.272Z,4.75
2023-04-17T13:19:00.949Z,4.90
2023-04-17T13:21:32.614Z,5.00
2023-04-17T13:24:04.961Z,4.72
2023-04-17T13:26:37.122Z,4.57
2023-04-17T13:29:10.324Z,5.32
2023-04-17T13:31:42.171Z,5.00
2023-04-17T13:34:14.201Z,5.18
2023-04-17T13:36:45.892Z,5.15
2023-04-17T13:39:18.710Z,5.15
2023-04-17T13:41:50.450Z,5.13
2023-04-17T13:44:23.833Z,4.85
2023-04-17T13:46:55.541Z,5.40
2023-04-17T13:49:27.215Z,4.97
2023-04-17T13:51:58.927Z,5.43
2023-04-17T13:54:30.609Z,5.88
2023-04-17T13:57:02.266Z,5.28
2023-04-17T13:59:35.248Z,4.95
2023-04-17T14:02:07.125Z,4.97
2023-04-17T14:04:38.894Z,5.57
2023-04-17T14:07:10.631Z,5.15
2023-04-17T14:09:42.291Z,5.18
2023-04-17T14:12:13.942Z,5.90
2023-04-17T14:14:46.970Z,5.57
2023-04-17T14:17:18.619Z,5.97
2023-04-17T14:19:50.328Z,5.07
2023-04-17T14:22:21.962Z,5.78
2023-04-17T14:24:53.629Z,5.97
2023-04-17T14:27:25.338Z,5.03
2023-04-17T14:29:59.402Z,5.60
2023-04-17T14:32:32.788Z,5.28
2023-04-17T14:35:05.081Z,5.88
2023-04-17T14:37:36.730Z,5.30
2023-04-17T14:40:09.225Z,5.22
2023-04-17T14:42:53.584Z,6.25
2023-04-17T14:45:27.490Z,5.10
2023-04-17T14:47:59.158Z,5.75
2023-04-17T14:50:30.877Z,5.20
2023-04-17T14:53:02.568Z,5.15
2023-04-17T14:55:34.266Z,5.50
2023-04-17T14:58:05.923Z,5.72
2023-04-17T15:00:38.997Z,6.15
2023-04-17T15:03:11.190Z,5.70
2023-04-17T15:05:42.905Z,5.70
2023-04-17T15:08:14.563Z,5.18
2023-04-17T15:10:51.124Z,5.78
2023-04-17T15:13:23.450Z,5.85
2023-04-17T15:15:56.469Z,5.63
2023-04-17T15:18:28.228Z,5.07
2023-04-17T15:20:59.895Z,5.05
2023-04-17T15:23:31.582Z,5.15
2023-04-17T15:26:03.350Z,5.78
2023-04-17T15:28:35.098Z,6.28
2023-04-17T15:31:08.136Z,6.55
2023-04-17T15:33:39.784Z,5.80
2023-04-17T15:36:11.463Z,5.85
2023-04-17T15:38:43.104Z,6.10
2023-04-17T15:41:14.834Z,6.93
2023-04-17T15:43:46.529Z,5.95
2023-04-17T15:46:19.551Z,5.95
2023-04-17T15:49:04.949Z,5.60
2023-04-17T15:51:41.612Z,5.80
2023-04-17T15:54:13.387Z,5.40
2023-04-17T15:56:45.025Z,5.50
2023-04-17T15:59:16.725Z,5.70
2023-04-17T16:01:49.797Z,5.18
2023-04-17T16:04:21.589Z,5.30
2023-04-17T16:06:53.879Z,5.32
2023-04-17T16:09:25.624Z,5.75
2023-04-17T16:11:57.713Z,5.72
2023-04-17T16:14:29.369Z,6.25
2023-04-17T16:17:02.388Z,5.63
2023-04-17T16:19:34.071Z,5.82
2023-04-17T16:22:05.765Z,5.50
2023-04-17T16:24:37.429Z,5.93
2023-04-17T16:27:09.121Z,5.18
2023-04-17T16:29:40.771Z,6.35
2023-04-17T16:32:14.136Z,5.65
2023-04-17T16:34:45.819Z,6.97
2023-04-17T16:37:17.546Z,6.47
2023-04-17T16:39:49.217Z,7.00
2023-04-17T16:42:20.856Z,6.43
2023-04-17T16:44:52.531Z,6.07
2023-04-17T16:47:25.688Z,6.40
2023-04-17T16:49:57.446Z,6.47
2023-04-17T16:52:29.089Z,5.90
2023-04-17T16:55:00.787Z,5.60
2023-04-17T16:57:32.412Z,6.43
2023-04-17T17:00:04.557Z,6.15
2023-04-17T17:02:37.685Z,6.07
2023-04-17T17:05:09.839Z,6.93
2023-04-17T17:07:41.464Z,6.57
2023-04-17T17:10:13.164Z,6.57
2023-04-17T17:12:44.825Z,6.75
2023-04-17T17:15:16.853Z,6.32
2023-04-17T17:17:49.898Z,6.18
2023-04-17T17:20:21.631Z,6.55
2023-04-17T17:22:53.634Z,6.43
2023-04-17T17:25:25.305Z,6.07
2023-04-17T17:27:56.953Z,6.40
2023-04-17T17:30:28.626Z,6.05
2023-04-17T17:33:01.657Z,6.03
2023-04-17T17:35:33.691Z,6.55
2023-04-17T17:38:05.348Z,6.40
2023-04-17T17:40:37.024Z,6.53
2023-04-17T17:43:08.669Z,6.38
2023-04-17T17:45:40.374Z,6.22
2023-04-17T17:48:13.405Z,6.20
2023-04-17T17:50:45.065Z,6.65
2023-04-17T17:53:16.888Z,6.70
2023-04-17T17:55:50.783Z,6.60
2023-04-17T17:58:22.441Z,6.30
2023-04-17T18:00:54.101Z,6.82
2023-04-17T18:03:27.238Z,6.75
2023-04-17T18:05:58.994Z,6.30
2023-04-17T18:08:30.616Z,6.18
2023-04-17T18:11:02.289Z,6.03
2023-04-17T18:13:33.972Z,5.88
2023-04-17T18:16:06.362Z,5.85
2023-04-17T18:18:39.379Z,6.85
2023-04-17T18:21:11.105Z,6.20
2023-04-17T18:23:42.730Z,6.82
2023-04-17T18:26:14.378Z,5.55
2023-04-17T18:28:46.041Z,7.03
2023-04-17T18:31:17.772Z,6.47
2023-04-17T18:33:50.847Z,6.60
2023-04-17T18:36:22.516Z,6.03
2023-04-17T18:38:54.145Z,6.80
2023-04-17T18:41:26.013Z,6.15
2023-04-17T18:43:57.647Z,6.80
2023-04-17T18:46:29.349Z,6.38
2023-04-17T18:49:02.353Z,6.53
2023-04-17T18:51:33.995Z,6.38
2023-04-17T18:54:05.750Z,6.43
2023-04-17T18:56:37.366Z,6.22
2023-04-17T18:59:09.088Z,6.35
2023-04-17T19:01:40.713Z,6.35
2023-04-17T19:04:13.875Z,6.75
2023-04-17T19:06:45.821Z,5.88
2023-04-17T19:09:17.531Z,6.15
2023-04-17T19:11:49.169Z,6.68
2023-04-17T19:14:20.854Z,6.75
2023-04-17T19:16:52.522Z,6.68
2023-04-17T19:19:25.787Z,5.70
2023-04-17T19:21:57.445Z,7.20
2023-04-17T19:24:29.115Z,6.80
2023-04-17T19:27:00.755Z,7.07
2023-04-17T19:29:32.445Z,6.57
2023-04-17T19:32:04.566Z,6.57
2023-04-17T19:34:37.645Z,6.47
2023-04-17T19:37:09.332Z,6.75
2023-04-17T19:39:40.987Z,6.60
2023-04-17T19:42:12.662Z,7.18
2023-04-17T19:44:44.304Z,7.20
2023-04-17T19:47:15.973Z,6.67
2023-04-17T19:49:48.979Z,6.53
2023-04-17T19:52:20.619Z,6.22
2023-04-17T19:54:52.276Z,6.30
2023-04-17T19:57:23.918Z,6.15
2023-04-17T19:59:55.625Z,6.10
2023-04-17T20:02:27.421Z,7.60
2023-04-17T20:05:00.484Z,7.82
2023-04-17T20:07:32.128Z,7.70
2023-04-17T20:10:04.207Z,7.93
2023-04-17T20:12:35.892Z,8.23
2023-04-17T20:15:08.803Z,8.93
2023-04-17T20:17:40.474Z,8.00
2023-04-17T20:20:13.638Z,8.30
2023-04-17T20:22:45.301Z,8.60
2023-04-17T20:25:17.083Z,9.52
2023-04-17T20:27:48.741Z,8.50
2023-04-17T20:30:20.918Z,8.90
2023-04-17T20:32:52.648Z,9.00
2023-04-17T20:35:25.754Z,8.60
2023-04-17T20:37:57.432Z,9.63
2023-04-17T20:40:29.231Z,9.60
2023-04-17T20:43:00.894Z,9.33
2023-04-17T20:45:32.624Z,10.00
2023-04-17T20:48:04.455Z,8.68
2023-04-17T20:50:37.478Z,8.80
2023-04-17T20:53:09.122Z,9.18
2023-04-17T20:55:40.812Z,9.03
2023-04-17T20:58:12.469Z,8.73
2023-04-17T21:00:54.276Z,8.57
2023-04-17T21:03:32.366Z,8.52
2023-04-17T21:06:05.830Z,9.00
2023-04-17T21:08:37.462Z,8.57
2023-04-17T21:11:09.103Z,8.80
2023-04-17T21:13:40.806Z,9.57
2023-04-17T21:16:13.472Z,9.15
2023-04-17T21:18:45.206Z,8.85
2023-04-17T21:21:18.194Z,9.10
2023-04-17T21:23:51.142Z,8.77
2023-04-17T21:26:22.776Z,8.00
2023-04-17T21:28:54.445Z,8.03
2023-04-17T21:31:26.100Z,8.17
2023-04-17T21:33:57.776Z,8.53
2023-04-17T21:36:30.759Z,7.90
2023-04-17T21:39:02.475Z,8.37
2023-04-17T21:41:34.133Z,8.17
2023-04-17T21:44:05.833Z,8.37
2023-04-17T21:46:37.876Z,7.83
2023-04-17T21:49:09.533Z,8.43
2023-04-17T21:51:42.586Z,10.03
2023-04-17T21:54:14.487Z,8.90
2023-04-17T21:56:46.370Z,8.90
2023-04-17T21:59:18.041Z,8.88
